Time;durP1;ratioP1;P1;durP2;ratioP2;P2;SDS_P1;SDS_P2;PMS_P1;PMS_P2;Temp;Humidity;BMP_temperature;BMP_pressure;BME280_temperature;BME280_humidity;BME280_pressure;Samples;Min_cycle;Max_cycle;Signal;HPM_P1;HPM_P2
2022/06/09 00:00:35;;;;;;;11.43;7.75;;;;;;;18.27;74.10;94871.84;5025006;28;20417;-81
2022/06/09 00:03:05;;;;;;;10.48;8.18;;;;;;;18.19;73.75;94866.78;4999679;28;20087;-81
2022/06/09 00:05:31;;;;;;;9.55;7.78;;;;;;;18.15;73.93;94861.03;5024435;28;20060;-82
2022/06/09 00:07:56;;;;;;;12.55;8.63;;;;;;;18.09;73.74;94860.03;5024434;28;20053;-80
2022/06/09 00:10:26;;;;;;;11.63;9.10;;;;;;;18.15;73.80;94861.03;5015431;28;20560;-81
2022/06/09 00:12:52;;;;;;;11.65;8.68;;;;;;;18.18;73.76;94865.97;5001796;28;20028;-81
2022/06/09 00:15:17;;;;;;;11.70;8.63;;;;;;;18.19;73.86;94872.19;5036064;28;20407;-82
2022/06/09 00:17:42;;;;;;;13.35;8.80;;;;;;;18.21;73.47;94876.34;5029065;28;20116;-81
2022/06/09 00:20:09;;;;;;;12.23;9.07;;;;;;;18.20;73.65;94869.25;5052796;28;20025;-80
2022/06/09 00:22:34;;;;;;;14.30;9.07;;;;;;;18.20;73.34;94869.25;5027592;28;20029;-82
2022/06/09 00:24:59;;;;;;;14.13;9.40;;;;;;;18.18;74.04;94867.84;5027459;28;20025;-81
2022/06/09 00:27:25;;;;;;;14.13;8.88;;;;;;;18.16;73.96;94868.09;5035309;28;20099;-81
2022/06/09 00:29:51;;;;;;;12.23;9.45;;;;;;;18.10;73.22;94867.13;5027945;28;20471;-81
2022/06/09 00:32:16;;;;;;;12.65;9.43;;;;;;;18.13;73.52;94866.69;5028836;28;20030;-82
2022/06/09 00:34:41;;;;;;;15.40;9.77;;;;;;;18.14;73.58;94865.63;5029035;28;20026;-81
2022/06/09 00:37:07;;;;;;;12.63;9.43;;;;;;;18.03;73.87;94863.72;5052102;28;20412;-81
2022/06/09 00:39:32;;;;;;;13.15;9.82;;;;;;;18.07;73.86;94862.16;5027889;28;20433;-80
2022/06/09 00:41:58;;;;;;;14.73;10.60;;;;;;;18.07;73.96;94854.00;5011267;28;20025;-82
2022/06/09 00:44:25;;;;;;;14.23;9.93;;;;;;;18.03;73.52;94852.84;5029151;28;20132;-82
2022/06/09 00:47:02;;;;;;;10.85;8.90;;;;;;;18.01;74.28;94854.97;5027592;28;20025;-81
2022/06/09 00:49:33;;;;;;;11.68;9.48;;;;;;;17.98;73.87;94842.72;5027266;28;20091;-81
2022/06/09 00:52:00;;;;;;;10.48;8.55;;;;;;;17.98;74.05;94845.44;5003386;28;20045;-80
2022/06/09 00:54:31;;;;;;;12.30;8.82;;;;;;;17.96;74.12;94842.13;5001805;28;20538;-81
2022/06/09 00:57:02;;;;;;;10.43;8.40;;;;;;;17.92;74.02;94836.38;5025873;28;20033;-82
2022/06/09 00:59:27;;;;;;;11.57;8.00;;;;;;;17.96;73.26;94834.00;5028228;28;20832;-81
2022/06/09 01:01:58;;;;;;;10.60;7.97;;;;;;;17.85;73.79;94838.38;5029788;28;20508;-81
2022/06/09 01:04:24;;;;;;;10.43;8.18;;;;;;;17.86;73.91;94842.72;5028760;28;20083;-82
2022/06/09 01:06:54;;;;;;;11.25;7.95;;;;;;;17.83;73.94;94845.09;5028371;28;20030;-80
2022/06/09 01:09:24;;;;;;;9.65;7.63;;;;;;;17.84;74.09;94850.28;5028687;28;20026;-81
2022/06/09 01:11:51;;;;;;;9.93;7.97;;;;;;;17.84;73.94;94849.47;5044889;28;20036;-81
2022/06/09 01:14:19;;;;;;;13.15;8.63;;;;;;;17.74;73.59;94852.75;5028270;28;20120;-81
2022/06/09 01:17:16;;;;;;;12.40;8.30;;;;;;;17.69;73.92;94848.06;5028043;28;20029;-81
2022/06/09 01:19:48;;;;;;;10.68;8.93;;;;;;;17.72;74.29;94844.03;5011782;28;20029;-81
2022/06/09 01:22:51;;;;;;;11.95;9.40;;;;;;;17.69;74.47;94847.22;5028528;28;20596;-81
2022/06/09 01:25:51;;;;;;;12.18;8.68;;;;;;;17.61;73.88;94838.41;5027955;28;20068;-82
2022/06/09 01:28:53;;;;;;;11.48;8.77;;;;;;;17.65;74.10;94836.03;5010470;28;20053;-81
2022/06/09 01:31:25;;;;;;;11.00;8.77;;;;;;;17.65;74.11;94846.88;5028003;28;20496;-83
2022/06/09 01:34:17;;;;;;;12.30;8.68;;;;;;;17.64;73.94;94840.63;5027796;28;20048;-81
2022/06/09 01:36:45;;;;;;;10.82;8.65;;;;;;;17.63;73.49;94839.00;5011358;28;20044;-81
2022/06/09 01:39:10;;;;;;;10.35;8.38;;;;;;;17.60;73.95;94833.22;5028207;28;20053;-81
2022/06/09 01:41:36;;;;;;;11.80;8.18;;;;;;;17.57;74.24;94829.09;5027307;28;20029;-80
2022/06/09 01:44:01;;;;;;;11.93;8.20;;;;;;;17.59;73.83;94831.56;5027767;28;20029;-83
2022/06/09 01:46:35;;;;;;;10.35;7.63;;;;;;;17.47;74.15;94828.84;5026809;28;20128;-83
2022/06/09 01:49:14;;;;;;;9.00;7.68;;;;;;;17.51;74.72;94830.00;5029216;28;20026;-83
2022/06/09 01:51:41;;;;;;;9.23;7.68;;;;;;;17.54;74.69;94833.09;5010488;28;20041;-83
2022/06/09 01:54:11;;;;;;;8.88;7.05;;;;;;;17.55;75.00;94832.00;5011335;28;20033;-81
2022/06/09 01:56:41;;;;;;;10.48;8.27;;;;;;;17.61;74.92;94827.56;5027979;28;20814;-82
2022/06/09 01:59:08;;;;;;;11.77;8.07;;;;;;;17.58;74.80;94829.91;5027892;28;20033;-82
2022/06/09 02:01:35;;;;;;;9.57;8.02;;;;;;;17.60;74.57;94838.63;5044196;28;20036;-82
2022/06/09 02:04:03;;;;;;;10.63;8.20;;;;;;;17.64;74.56;94837.09;5027280;28;20048;-82
2022/06/09 02:06:28;;;;;;;9.63;7.60;;;;;;;17.59;74.38;94831.56;5027498;28;20033;-82
2022/06/09 02:08:54;;;;;;;9.18;7.75;;;;;;;17.58;74.60;94828.03;5027167;28;20120;-81
2022/06/09 02:11:19;;;;;;;11.93;8.55;;;;;;;17.58;74.65;94825.31;5027443;28;20030;-81
2022/06/09 02:13:49;;;;;;;12.02;7.63;;;;;;;17.49;74.58;94832.16;5026702;28;20033;-83
2022/06/09 02:16:17;;;;;;;9.02;6.35;;;;;;;17.46;73.87;94833.44;5027333;28;20049;-81
2022/06/09 02:18:45;;;;;;;8.93;5.97;;;;;;;17.40;74.83;94843.34;5027347;28;20030;-83
2022/06/09 02:21:24;;;;;;;10.95;5.90;;;;;;;17.40;74.31;94847.94;5025908;28;20108;-81
2022/06/09 02:23:51;;;;;;;7.40;5.03;;;;;;;17.36;73.82;94841.34;5011012;28;20522;-81
2022/06/09 02:26:16;;;;;;;10.55;6.30;;;;;;;17.27;74.77;94844.38;5025424;28;20156;-84
2022/06/09 02:28:42;;;;;;;9.10;6.47;;;;;;;17.22;74.65;94846.97;5010914;28;20093;-81
2022/06/09 02:31:08;;;;;;;7.93;5.35;;;;;;;17.23;74.13;94843.22;5025587;28;20025;-82
2022/06/09 02:33:34;;;;;;;7.22;5.70;;;;;;;17.12;74.74;94844.84;5025894;28;20078;-83
2022/06/09 02:35:59;;;;;;;7.03;5.40;;;;;;;17.13;74.55;94851.91;5009618;28;20037;-81
2022/06/09 02:38:25;;;;;;;8.45;5.43;;;;;;;17.16;74.53;94840.63;5010063;28;20031;-81
2022/06/09 02:40:50;;;;;;;9.45;5.90;;;;;;;17.17;74.29;94844.13;5026646;28;20029;-82
2022/06/09 02:43:16;;;;;;;9.38;5.47;;;;;;;17.21;74.23;94852.63;4993139;28;20465;-83
2022/06/09 02:45:41;;;;;;;7.55;5.00;;;;;;;17.24;74.05;94860.28;5027062;28;20041;-81
2022/06/09 02:48:07;;;;;;;8.25;5.30;;;;;;;17.24;73.82;94852.16;5026353;28;20038;-82
2022/06/09 02:50:33;;;;;;;10.85;6.53;;;;;;;17.16;73.66;94854.16;5010130;28;20029;-81
2022/06/09 02:52:59;;;;;;;10.60;6.28;;;;;;;17.14;74.16;94856.28;5008915;28;20061;-82
2022/06/09 02:55:24;;;;;;;4.75;4.22;;;;;;;17.16;73.32;94856.88;4993443;28;20348;-81
2022/06/09 02:57:50;;;;;;;7.22;4.57;;;;;;;17.22;73.39;94854.28;5009579;28;20034;-83
2022/06/09 03:00:15;;;;;;;8.23;4.68;;;;;;;17.14;73.55;94842.72;5009450;28;20052;-83
2022/06/09 03:02:42;;;;;;;6.90;3.95;;;;;;;17.10;72.81;94849.69;5009760;28;20029;-81
2022/06/09 03:05:08;;;;;;;6.25;4.05;;;;;;;17.03;72.98;94844.31;5026015;28;20025;-83
2022/06/09 03:07:33;;;;;;;5.28;3.92;;;;;;;17.08;73.37;94849.06;5009712;28;20114;-82
2022/06/09 03:09:59;;;;;;;7.45;4.15;;;;;;;17.16;73.44;94845.19;5025220;28;20030;-81
2022/06/09 03:12:24;;;;;;;6.13;3.90;;;;;;;17.16;73.16;94848.75;5026018;28;20037;-82
2022/06/09 03:14:50;;;;;;;7.57;4.20;;;;;;;17.15;73.21;94851.69;5026927;28;20028;-82
2022/06/09 03:17:15;;;;;;;6.68;3.88;;;;;;;17.15;73.10;94849.78;5028162;28;20474;-82
2022/06/09 03:19:41;;;;;;;8.55;4.78;;;;;;;17.19;73.22;94847.44;5026294;28;20499;-81
2022/06/09 03:22:07;;;;;;;5.93;3.95;;;;;;;17.20;72.93;94848.28;5026933;28;20025;-81
2022/06/09 03:24:32;;;;;;;4.65;3.50;;;;;;;17.21;72.70;94849.91;4993039;28;20501;-83
2022/06/09 03:26:58;;;;;;;5.40;4.10;;;;;;;17.21;73.01;94847.19;5026271;28;20595;-82
2022/06/09 03:29:23;;;;;;;5.03;3.97;;;;;;;17.22;73.10;94848.88;5027600;28;20064;-82
2022/06/09 03:31:49;;;;;;;7.15;4.72;;;;;;;17.28;73.06;94848.75;5025335;28;20830;-82
2022/06/09 03:34:14;;;;;;;7.32;4.40;;;;;;;17.36;73.91;94844.06;5025969;28;20029;-82
2022/06/09 03:36:40;;;;;;;8.63;5.53;;;;;;;17.42;74.26;94854.78;5009250;28;20079;-81
2022/06/09 03:39:05;;;;;;;8.20;5.88;;;;;;;17.38;73.94;94852.75;5025501;28;20029;-81
2022/06/09 03:41:31;;;;;;;10.23;6.57;;;;;;;17.42;74.35;94851.25;5025021;28;20085;-81
2022/06/09 03:43:56;;;;;;;11.52;7.07;;;;;;;17.45;74.08;94853.47;5022643;28;20034;-81
2022/06/09 03:46:22;;;;;;;9.57;6.68;;;;;;;17.52;75.21;94859.59;5007734;28;20030;-81
2022/06/09 03:48:47;;;;;;;11.95;7.57;;;;;;;17.59;75.04;94848.63;5013025;28;20168;-82
2022/06/09 03:51:13;;;;;;;14.15;8.65;;;;;;;17.64;75.24;94851.47;5024331;28;20043;-83
2022/06/09 03:53:39;;;;;;;15.35;10.18;;;;;;;17.66;74.24;94851.25;5025059;28;20052;-83
2022/06/09 03:56:07;;;;;;;15.50;10.65;;;;;;;17.62;73.60;94853.59;5021107;28;20026;-80
2022/06/09 03:58:32;;;;;;;17.85;10.80;;;;;;;17.66;72.80;94843.94;5013337;28;20038;-78
2022/06/09 04:00:58;;;;;;;17.67;11.30;;;;;;;17.62;73.06;94850.88;5014482;28;20063;-80
2022/06/09 04:03:23;;;;;;;17.00;10.93;;;;;;;17.73;72.34;94853.84;5013064;28;20045;-80
2022/06/09 04:05:49;;;;;;;21.13;11.68;;;;;;;17.75;72.62;94851.72;5014578;28;20120;-79
2022/06/09 04:08:14;;;;;;;21.35;12.35;;;;;;;17.76;72.29;94853.38;5012377;28;20157;-79
2022/06/09 04:10:40;;;;;;;25.58;12.57;;;;;;;17.83;71.49;94842.41;5018783;28;20040;-80
2022/06/09 04:13:05;;;;;;;19.17;12.32;;;;;;;17.73;72.23;94845.69;5026928;28;20115;-80
2022/06/09 04:15:31;;;;;;;21.00;12.93;;;;;;;17.74;72.25;94850.88;5022670;28;20029;-80
2022/06/09 04:17:57;;;;;;;20.27;12.95;;;;;;;17.81;72.42;94853.47;5008230;28;20040;-80
2022/06/09 04:20:24;;;;;;;19.40;12.85;;;;;;;17.91;73.17;94845.56;5022477;28;20017;-80
2022/06/09 04:22:49;;;;;;;19.42;12.95;;;;;;;17.96;71.55;94852.97;5024911;28;20040;-79
2022/06/09 04:25:16;;;;;;;23.20;13.00;;;;;;;17.98;71.67;94850.84;5024135;28;20033;-80
2022/06/09 04:27:41;;;;;;;20.08;12.60;;;;;;;18.03;71.98;94848.25;5023276;28;20483;-80
2022/06/09 04:30:07;;;;;;;20.10;13.00;;;;;;;17.99;71.67;94846.28;5021858;28;20014;-80
2022/06/09 04:32:33;;;;;;;21.85;11.90;;;;;;;18.06;71.43;94837.97;5021454;28;20072;-80
2022/06/09 04:34:59;;;;;;;18.77;12.05;;;;;;;18.03;71.62;94845.56;5024287;28;20030;-80
2022/06/09 04:37:59;;;;;;;19.83;11.40;;;;;;;18.00;71.49;94837.06;5007017;28;20030;-80
2022/06/09 04:40:10;;;;;;;23.40;12.23;;;;;;;18.03;71.49;94844.72;5022746;28;20033;-79
2022/06/09 04:42:35;;;;;;;17.65;12.02;;;;;;;18.18;71.29;94832.56;5024898;28;20030;-80
2022/06/09 04:45:01;;;;;;;19.15;12.32;;;;;;;18.33;70.60;94835.56;5023381;28;20030;-79
2022/06/09 04:47:26;;;;;;;19.67;10.77;;;;;;;18.31;70.56;94840.44;5025536;28;20033;-79
2022/06/09 04:49:52;;;;;;;20.65;12.70;;;;;;;18.29;70.65;94839.84;5002323;28;20029;-80
2022/06/09 04:52:17;;;;;;;16.17;10.85;;;;;;;18.37;70.25;94839.47;5023423;28;20044;-79
2022/06/09 04:54:42;;;;;;;17.33;11.27;;;;;;;18.55;70.12;94837.66;5021034;28;20021;-79
2022/06/09 04:57:08;;;;;;;13.95;10.15;;;;;;;18.61;69.02;94836.66;5022920;28;20026;-79
2022/06/09 04:59:33;;;;;;;14.07;10.13;;;;;;;18.62;69.31;94838.31;5004763;28;20084;-79
2022/06/09 05:01:59;;;;;;;15.00;10.05;;;;;;;18.46;69.68;94833.66;4991975;28;20491;-79
2022/06/09 05:04:24;;;;;;;16.02;10.30;;;;;;;18.51;69.30;94837.28;5025539;28;20524;-80
2022/06/09 05:06:50;;;;;;;16.33;10.10;;;;;;;18.49;68.96;94833.19;5022860;28;20041;-80
2022/06/09 05:09:15;;;;;;;17.67;9.77;;;;;;;18.64;68.34;94844.34;5026072;28;20057;-83
2022/06/09 05:11:41;;;;;;;17.80;10.48;;;;;;;18.69;68.71;94827.31;5026258;28;20033;-80
2022/06/09 05:14:06;;;;;;;16.23;10.23;;;;;;;18.92;68.45;94841.00;5010960;28;20029;-80
2022/06/09 05:16:32;;;;;;;15.07;9.23;;;;;;;19.12;68.18;94829.72;5026662;28;20119;-84
2022/06/09 05:18:57;;;;;;;13.88;10.13;;;;;;;19.30;68.14;94825.91;5025490;28;20532;-85
2022/06/09 05:21:23;;;;;;;13.90;9.85;;;;;;;19.47;67.15;94830.53;5028970;28;20025;-86
2022/06/09 05:23:48;;;;;;;13.63;9.52;;;;;;;19.60;66.99;94832.09;5026100;28;20071;-83
2022/06/09 05:26:14;;;;;;;14.15;8.85;;;;;;;19.63;66.90;94829.69;5027215;28;20523;-82
2022/06/09 05:28:39;;;;;;;12.43;8.77;;;;;;;19.88;66.29;94831.13;5023833;28;20465;-86
2022/06/09 05:31:04;;;;;;;13.88;9.45;;;;;;;20.02;66.53;94833.50;4994221;28;20026;-84
2022/06/09 05:33:30;;;;;;;10.35;7.63;;;;;;;19.81;65.18;94825.06;5026277;28;20091;-84
2022/06/09 05:35:55;;;;;;;10.55;7.85;;;;;;;19.82;65.72;94823.97;5006205;28;20527;-83
2022/06/09 05:46:33;;;;;;;12.98;9.13;;;;;;;19.71;66.00;94828.44;5023199;28;20028;-83
2022/06/09 05:48:59;;;;;;;11.60;8.85;;;;;;;19.67;66.45;94827.28;5022759;28;20034;-82
2022/06/09 05:51:24;;;;;;;15.45;9.20;;;;;;;19.74;67.08;94829.84;5023778;28;20021;-84
2022/06/09 05:53:49;;;;;;;16.75;9.80;;;;;;;19.96;65.58;94829.88;5025446;28;20124;-85
2022/06/09 05:56:16;;;;;;;16.70;10.57;;;;;;;19.86;64.94;94825.09;5040593;28;20044;-84
2022/06/09 05:58:41;;;;;;;15.68;10.30;;;;;;;20.01;66.20;94823.66;5005516;28;20081;-84
2022/06/09 06:01:08;;;;;;;17.15;10.85;;;;;;;20.02;65.42;94825.31;5006390;28;20025;-83
2022/06/09 06:03:34;;;;;;;16.95;10.13;;;;;;;19.83;65.57;94819.34;5025451;28;20017;-85
2022/06/09 06:08:43;;;;;;;14.45;10.93;;;;;;;19.93;65.17;94827.66;5020963;28;20076;-83
2022/06/09 06:11:09;;;;;;;15.23;9.93;;;;;;;19.85;65.10;94826.19;5024630;28;20025;-84
2022/06/09 06:13:34;;;;;;;13.60;9.90;;;;;;;19.96;63.24;94827.13;5022625;28;20017;-83
2022/06/09 06:15:59;;;;;;;11.68;9.25;;;;;;;19.89;63.04;94816.44;5026504;28;20044;-83
2022/06/09 06:18:26;;;;;;;13.90;9.75;;;;;;;19.79;64.07;94819.03;5042054;28;20032;-86
2022/06/09 06:20:53;;;;;;;14.27;10.50;;;;;;;19.87;65.93;94807.72;5024327;28;20515;-83
2022/06/09 06:23:19;;;;;;;17.88;10.27;;;;;;;19.94;65.35;94820.31;5027153;28;20112;-84
2022/06/09 06:25:44;;;;;;;14.00;9.50;;;;;;;20.01;63.44;94823.66;5021600;28;20045;-83
2022/06/09 06:28:09;;;;;;;12.90;9.15;;;;;;;20.29;62.58;94810.97;5025427;28;20022;-82
2022/06/09 06:30:35;;;;;;;12.20;8.82;;;;;;;20.18;64.76;94809.22;5022066;28;20025;-84
2022/06/09 06:33:00;;;;;;;12.60;9.43;;;;;;;20.29;64.27;94808.25;5024409;28;20021;-86
2022/06/09 06:35:26;;;;;;;16.92;9.60;;;;;;;20.33;63.63;94808.59;5025395;28;20037;-86
2022/06/09 06:37:52;;;;;;;14.20;9.30;;;;;;;20.37;63.28;94813.25;5025896;28;20025;-83
2022/06/09 06:40:17;;;;;;;13.82;10.02;;;;;;;20.41;63.66;94805.38;5025267;28;20036;-84
2022/06/09 06:42:43;;;;;;;13.10;9.90;;;;;;;20.38;62.92;94801.28;5025105;28;20009;-84
2022/06/09 06:45:10;;;;;;;12.80;9.45;;;;;;;20.21;62.75;94801.38;5026588;28;20488;-85
2022/06/09 06:47:38;;;;;;;14.43;9.98;;;;;;;20.21;62.24;94806.81;5024560;28;20025;-87
2022/06/09 06:50:04;;;;;;;14.30;8.98;;;;;;;20.13;62.06;94810.78;5023874;28;20022;-84
2022/06/09 06:52:30;;;;;;;12.63;8.77;;;;;;;20.18;62.12;94807.31;5024173;28;20117;-84
2022/06/09 06:54:55;;;;;;;12.98;9.70;;;;;;;20.29;61.11;94810.97;5023335;28;20110;-85
2022/06/09 06:57:20;;;;;;;16.85;10.45;;;;;;;20.58;60.79;94804.50;5029015;28;20033;-86
2022/06/09 06:59:46;;;;;;;12.98;9.07;;;;;;;20.79;61.62;94807.41;5039543;28;20033;-88
2022/06/09 07:02:11;;;;;;;11.02;8.45;;;;;;;20.98;60.99;94803.28;5040760;28;20384;-85
2022/06/09 07:04:37;;;;;;;13.75;9.35;;;;;;;21.14;61.34;94806.13;5024554;28;20033;-84
2022/06/09 07:07:03;;;;;;;13.70;8.30;;;;;;;21.25;60.64;94801.56;5024773;28;20034;-84
2022/06/09 07:09:28;;;;;;;12.45;9.07;;;;;;;21.36;59.82;94803.31;5002111;28;20486;-84
2022/06/09 07:11:53;;;;;;;10.57;8.07;;;;;;;21.43;59.16;94804.97;5025155;28;20191;-85
2022/06/09 07:14:19;;;;;;;10.95;8.43;;;;;;;20.94;61.72;94796.69;5024821;28;20021;-86
2022/06/09 07:16:44;;;;;;;17.23;9.98;;;;;;;20.87;61.41;94791.44;5022615;28;20030;-85
2022/06/09 07:19:10;;;;;;;14.25;9.40;;;;;;;20.84;62.02;94800.13;5024060;28;20411;-85
2022/06/09 07:21:35;;;;;;;13.18;9.52;;;;;;;20.83;62.13;94801.19;5056267;28;20029;-85
2022/06/09 07:24:01;;;;;;;14.30;9.07;;;;;;;20.68;61.77;94792.88;5025938;28;20025;-84
2022/06/09 07:26:26;;;;;;;11.55;8.63;;;;;;;20.98;60.84;94789.66;5009248;28;20482;-83
2022/06/09 07:28:52;;;;;;;12.13;9.07;;;;;;;21.04;61.51;94790.50;5023414;28;21323;-84
2022/06/09 07:31:17;;;;;;;15.57;9.98;;;;;;;21.36;61.36;94786.94;5023123;28;20025;-85
2022/06/09 07:33:43;;;;;;;13.68;9.43;;;;;;;21.42;60.82;94792.44;5003197;28;20037;-85
2022/06/09 07:36:14;;;;;;;14.88;8.75;;;;;;;21.55;59.12;94789.28;5005055;28;20412;-85
2022/06/09 07:38:39;;;;;;;12.75;9.38;;;;;;;21.63;59.30;94790.69;4986568;28;20096;-85
2022/06/09 07:41:05;;;;;;;12.15;8.85;;;;;;;21.71;58.71;94781.16;5008301;28;20029;-83
2022/06/09 07:43:30;;;;;;;11.13;8.32;;;;;;;21.74;60.04;94781.47;5006396;28;20029;-83
2022/06/09 07:45:56;;;;;;;11.30;8.18;;;;;;;21.75;59.55;94776.81;5013463;28;20028;-84
2022/06/09 07:48:21;;;;;;;11.35;8.68;;;;;;;21.59;60.07;94768.53;5022520;28;20038;-84
2022/06/09 07:50:49;;;;;;;9.93;7.90;;;;;;;21.58;60.18;94761.47;5003894;28;20057;-84
2022/06/09 07:53:14;;;;;;;10.85;7.38;;;;;;;21.59;58.86;94763.09;5024535;28;20096;-86
2022/06/09 07:55:40;;;;;;;14.88;8.80;;;;;;;21.39;58.89;94773.88;5022845;28;20120;-84
2022/06/09 07:58:05;;;;;;;15.10;9.07;;;;;;;21.72;58.79;94759.06;5025286;28;20037;-85
2022/06/09 08:00:31;;;;;;;10.63;8.55;;;;;;;21.81;58.14;94758.59;5021965;28;20018;-84
2022/06/09 08:02:56;;;;;;;15.15;8.73;;;;;;;21.80;58.10;94759.69;5023587;28;20087;-84
2022/06/09 08:05:23;;;;;;;13.15;9.10;;;;;;;21.80;58.50;94762.41;5006755;28;20022;-83
2022/06/09 08:07:48;;;;;;;10.20;8.15;;;;;;;21.85;57.69;94760.53;5021395;28;20510;-84
2022/06/09 08:10:20;;;;;;;14.68;9.15;;;;;;;21.85;60.07;94754.25;5022718;28;20021;-82
2022/06/09 08:12:47;;;;;;;12.90;8.80;;;;;;;21.80;59.55;94749.59;5022869;28;20534;-82
2022/06/09 08:15:12;;;;;;;11.88;8.75;;;;;;;22.05;58.89;94748.06;4990616;28;20084;-84
2022/06/09 08:17:38;;;;;;;13.55;8.65;;;;;;;22.03;57.54;94752.97;4988687;28;20499;-84
2022/06/09 08:20:05;;;;;;;14.13;8.32;;;;;;;21.97;59.01;94743.91;5022967;28;20037;-84
2022/06/09 08:22:30;;;;;;;13.15;8.15;;;;;;;21.95;58.87;94748.03;5022399;28;20021;-85
2022/06/09 08:24:57;;;;;;;10.70;8.38;;;;;;;21.99;59.60;94740.94;5004313;28;20057;-84
2022/06/09 08:27:23;;;;;;;9.68;7.70;;;;;;;22.15;59.05;94733.63;5024602;28;20048;-83
2022/06/09 08:29:48;;;;;;;10.63;8.65;;;;;;;22.17;57.65;94736.91;4988269;28;20416;-84
2022/06/09 08:32:14;;;;;;;13.20;8.48;;;;;;;22.03;58.00;94728.41;5024360;28;20054;-83
2022/06/09 08:34:39;;;;;;;10.35;8.45;;;;;;;22.41;59.24;94735.63;5024640;28;20032;-84
2022/06/09 08:37:05;;;;;;;9.90;7.95;;;;;;;22.60;58.64;94723.09;5025874;28;20029;-83
2022/06/09 08:39:31;;;;;;;10.55;8.02;;;;;;;22.72;58.84;94727.50;5026063;28;20690;-85
2022/06/09 08:42:18;;;;;;;9.40;7.72;;;;;;;22.67;56.05;94711.91;5010556;28;20033;-85
2022/06/09 08:44:58;;;;;;;13.10;7.50;;;;;;;22.73;57.92;94715.47;5027922;28;20095;-85
2022/06/09 08:47:37;;;;;;;10.13;7.20;;;;;;;22.82;57.05;94721.22;5023990;28;20053;-84
2022/06/09 08:50:18;;;;;;;10.48;8.20;;;;;;;22.99;57.82;94720.13;5021847;28;20753;-84
2022/06/09 08:52:48;;;;;;;14.13;10.60;;;;;;;22.83;57.75;94712.75;5023529;28;20418;-83
2022/06/09 08:55:20;;;;;;;16.08;8.35;;;;;;;22.89;55.66;94720.94;5004320;28;20078;-85
2022/06/09 08:57:45;;;;;;;9.43;7.30;;;;;;;22.66;57.36;94718.47;5024180;28;20084;-84
2022/06/09 09:00:13;;;;;;;10.77;8.13;;;;;;;22.98;59.07;94713.84;5010482;28;20097;-84
2022/06/09 09:02:52;;;;;;;12.68;8.18;;;;;;;23.07;58.42;94706.72;5006689;28;20038;-86
2022/06/09 09:05:23;;;;;;;10.23;7.72;;;;;;;23.25;56.71;94698.22;5022236;28;20028;-84
2022/06/09 09:07:50;;;;;;;11.93;7.28;;;;;;;23.28;54.07;94698.47;5027723;28;20400;-83
2022/06/09 09:10:20;;;;;;;16.83;7.57;;;;;;;23.14;53.12;94694.66;5025005;28;20037;-84
2022/06/09 09:13:38;;;;;;;10.38;6.50;;;;;;;23.15;53.24;94691.66;5026924;28;20120;-83
2022/06/09 09:16:12;;;;;;;9.55;5.93;;;;;;;23.16;52.82;94690.59;4986776;28;20139;-83
2022/06/09 09:18:47;;;;;;;11.52;6.95;;;;;;;23.06;52.70;94683.22;4939099;28;20034;-83
2022/06/09 09:21:18;;;;;;;12.40;7.22;;;;;;;22.96;55.55;94683.19;5002075;28;20524;-82
2022/06/09 09:23:59;;;;;;;11.65;5.50;;;;;;;23.03;51.18;94681.03;5008360;28;20033;-84
2022/06/09 09:26:28;;;;;;;11.65;4.95;;;;;;;23.00;50.25;94670.63;5011720;28;20042;-83
2022/06/09 09:29:03;;;;;;;8.98;5.20;;;;;;;22.82;51.60;94672.84;5009959;28;20049;-83
2022/06/09 09:31:47;;;;;;;8.32;4.22;;;;;;;22.58;50.69;94665.16;5008353;28;20052;-84
2022/06/09 09:34:18;;;;;;;8.30;4.63;;;;;;;22.99;51.56;94663.50;5009658;28;20030;-83
2022/06/09 09:36:46;;;;;;;7.90;3.92;;;;;;;22.62;51.89;94659.19;4992259;28;20503;-84
2022/06/09 09:39:19;;;;;;;5.88;3.70;;;;;;;22.66;49.62;94663.81;4991777;28;20033;-83
2022/06/09 09:41:45;;;;;;;12.52;4.80;;;;;;;23.01;50.67;94657.78;5007754;28;20070;-83
2022/06/09 09:44:20;;;;;;;8.35;4.22;;;;;;;23.21;49.81;94648.72;5007584;28;20050;-85
2022/06/09 09:46:52;;;;;;;6.75;4.00;;;;;;;23.18;48.41;94652.03;5007773;28;20029;-82
2022/06/09 09:49:41;;;;;;;7.45;3.50;;;;;;;23.34;48.20;94648.13;4991866;28;20504;-83
2022/06/09 09:52:39;;;;;;;8.00;3.80;;;;;;;23.29;49.38;94647.34;5008619;28;20117;-83
2022/06/09 09:55:40;;;;;;;6.63;3.95;;;;;;;23.31;50.75;94647.88;5007679;28;20180;-82
2022/06/09 09:58:27;;;;;;;6.53;4.35;;;;;;;23.27;50.79;94644.06;4994200;28;20029;-83
2022/06/09 10:00:59;;;;;;;5.97;3.88;;;;;;;23.21;50.12;94638.59;5009132;28;20033;-84
2022/06/09 10:09:18;;;;;;;5.43;3.45;;;;;;;23.85;48.28;94622.78;5022678;28;20087;-83
2022/06/09 10:11:54;;;;;;;5.45;3.97;;;;;;;23.76;50.08;94626.13;5007331;28;20034;-85
2022/06/09 10:14:38;;;;;;;7.65;3.78;;;;;;;23.81;48.74;94623.34;4992668;28;20029;-83
2022/06/09 10:17:18;;;;;;;6.30;3.22;;;;;;;23.27;46.90;94620.25;5007139;28;20034;-83
2022/06/09 10:19:47;;;;;;;7.43;3.53;;;;;;;23.31;47.39;94612.31;4992519;28;20026;-82
2022/06/09 10:22:19;;;;;;;5.88;3.20;;;;;;;23.43;47.23;94620.22;4991426;28;20705;-83
2022/06/09 10:24:45;;;;;;;4.78;3.13;;;;;;;23.68;47.32;94613.03;4990545;28;20164;-84
2022/06/09 10:27:11;;;;;;;4.47;3.05;;;;;;;23.61;44.74;94605.13;5008127;28;20041;-82
2022/06/09 10:29:47;;;;;;;5.70;2.88;;;;;;;23.59;47.53;94599.09;4990651;28;20021;-83
2022/06/09 10:32:22;;;;;;;4.32;2.92;;;;;;;23.11;47.18;94602.25;4991874;28;20034;-84
2022/06/09 10:34:53;;;;;;;6.45;3.30;;;;;;;22.81;47.77;94604.78;4990133;28;20042;-83
2022/06/09 10:37:39;;;;;;;8.18;2.70;;;;;;;22.84;48.40;94602.28;5007248;28;20477;-83
2022/06/09 10:40:23;;;;;;;9.77;3.42;;;;;;;22.88;49.88;94596.28;5006749;28;20157;-84
2022/06/09 10:43:05;;;;;;;4.45;2.80;;;;;;;23.05;47.82;94601.44;5007739;28;20485;-83
2022/06/09 10:45:50;;;;;;;5.75;2.38;;;;;;;23.53;45.26;94603.78;4990791;28;20518;-84
2022/06/09 10:57:08;;;;;;;7.38;2.55;;;;;;;24.12;44.16;94586.75;4993145;28;20037;-84
2022/06/09 10:59:39;;;;;;;3.30;2.03;;;;;;;24.17;42.78;94583.19;5006635;28;20026;-83
2022/06/09 11:02:11;;;;;;;5.07;2.53;;;;;;;24.16;43.02;94573.34;5006239;28;20030;-85
2022/06/09 11:04:36;;;;;;;5.57;2.42;;;;;;;24.19;43.68;94572.78;5005800;28;20029;-83
2022/06/09 11:07:13;;;;;;;6.03;2.53;;;;;;;24.37;44.09;94579.50;4973137;28;20044;-83
2022/06/09 11:09:59;;;;;;;4.70;2.50;;;;;;;24.42;41.65;94576.69;5006106;28;20026;-85
2022/06/09 11:12:43;;;;;;;3.20;1.90;;;;;;;24.36;40.62;94580.59;5007086;28;20038;-83
2022/06/09 11:15:14;;;;;;;3.20;1.63;;;;;;;24.25;40.41;94577.13;5007034;28;20389;-83
2022/06/09 11:17:51;;;;;;;7.53;2.80;;;;;;;24.24;39.44;94571.91;5005676;28;20237;-85
2022/06/09 11:20:25;;;;;;;4.55;2.45;;;;;;;24.31;43.14;94566.94;5007514;28;20038;-84
2022/06/09 11:22:57;;;;;;;5.15;2.13;;;;;;;24.21;42.82;94565.09;5005489;28;20026;-83
2022/06/09 11:25:37;;;;;;;6.78;2.50;;;;;;;24.29;40.96;94561.75;4990021;28;20040;-84
2022/06/09 11:28:40;;;;;;;7.53;2.30;;;;;;;24.13;42.31;94568.41;5005611;28;20033;-83
2022/06/09 11:31:12;;;;;;;;;;;;;;;24.00;42.31;94562.47;5007289;28;20113;-84
2022/06/09 11:33:59;;;;;;;5.20;2.47;;;;;;;24.36;41.61;94549.66;5006062;28;19913;-83
2022/06/09 11:36:29;;;;;;;5.88;2.42;;;;;;;24.47;41.93;94553.94;5006604;28;20030;-83
2022/06/09 11:39:01;;;;;;;3.20;2.33;;;;;;;24.66;42.61;94545.81;5005294;28;20061;-83
2022/06/09 11:41:52;;;;;;;3.50;2.38;;;;;;;24.96;42.08;94542.25;5006955;28;20030;-85
2022/06/09 11:44:25;;;;;;;5.53;2.90;;;;;;;25.25;40.85;94528.47;5005288;28;20566;-83
2022/06/09 11:46:52;;;;;;;5.45;3.38;;;;;;;25.35;42.93;94527.53;4989167;28;20120;-84
2022/06/09 11:49:23;;;;;;;4.95;3.05;;;;;;;25.04;41.42;94527.88;5005118;28;20025;-82
2022/06/09 11:51:49;;;;;;;6.30;3.10;;;;;;;25.15;42.80;94517.63;5006479;28;20029;-83
2022/06/09 11:54:37;;;;;;;6.20;3.67;;;;;;;25.06;41.46;94526.50;4988337;28;20410;-82
2022/06/09 11:57:36;;;;;;;8.75;3.80;;;;;;;25.36;43.07;94517.38;5006486;28;20022;-82
2022/06/09 12:00:24;;;;;;;7.03;3.95;;;;;;;25.27;40.50;94519.94;5005966;28;20030;-82
2022/06/09 12:03:11;;;;;;;9.35;4.00;;;;;;;25.15;40.73;94514.91;5005753;28;20551;-83